sensor_id;sensor_type;location;lat;lon;timestamp;P1;durP1;ratioP1;P2;durP2;ratioP2
43160;SDS011;40968;52.342;5.528;2023-04-24T00:01:57;12.73;;;4.85;;
43160;SDS011;40968;52.342;5.528;2023-04-24T00:04:24;8.95;;;3.60;;
43160;SDS011;40968;52.342;5.528;2023-04-24T00:06:51;7.43;;;3.13;;
43160;SDS011;40968;52.342;5.528;2023-04-24T00:09:22;7.95;;;2.05;;
43160;SDS011;40968;52.342;5.528;2023-04-24T00:11:50;9.63;;;1.80;;
43160;SDS011;40968;52.342;5.528;2023-04-24T00:14:17;4.45;;;1.80;;
43160;SDS011;40968;52.342;5.528;2023-04-24T00:16:43;4.63;;;1.92;;
43160;SDS011;40968;52.342;5.528;2023-04-24T00:19:10;2.78;;;1.42;;
43160;SDS011;40968;52.342;5.528;2023-04-24T00:21:37;4.97;;;1.83;;
43160;SDS011;40968;52.342;5.528;2023-04-24T00:24:04;6.18;;;1.90;;
43160;SDS011;40968;52.342;5.528;2023-04-24T00:26:31;3.53;;;1.95;;
43160;SDS011;40968;52.342;5.528;2023-04-24T00:28:59;4.53;;;2.13;;
43160;SDS011;40968;52.342;5.528;2023-04-24T00:31:25;4.50;;;2.30;;
43160;SDS011;40968;52.342;5.528;2023-04-24T00:33:52;2.70;;;1.50;;
43160;SDS011;40968;52.342;5.528;2023-04-24T00:36:18;2.75;;;1.33;;
43160;SDS011;40968;52.342;5.528;2023-04-24T00:38:45;1.25;;;0.80;;
43160;SDS011;40968;52.342;5.528;2023-04-24T00:41:12;2.70;;;0.70;;
43160;SDS011;40968;52.342;5.528;2023-04-24T00:43:39;1.02;;;0.70;;
43160;SDS011;40968;52.342;5.528;2023-04-24T00:46:07;2.75;;;1.13;;
43160;SDS011;40968;52.342;5.528;2023-04-24T00:48:34;3.20;;;1.48;;
43160;SDS011;40968;52.342;5.528;2023-04-24T00:51:00;3.22;;;1.23;;
43160;SDS011;40968;52.342;5.528;2023-04-24T00:53:27;2.85;;;1.00;;
43160;SDS011;40968;52.342;5.528;2023-04-24T00:55:54;2.13;;;1.00;;
43160;SDS011;40968;52.342;5.528;2023-04-24T00:58:22;2.15;;;0.85;;
43160;SDS011;40968;52.342;5.528;2023-04-24T01:00:48;1.30;;;0.80;;
43160;SDS011;40968;52.342;5.528;2023-04-24T01:03:19;2.97;;;1.00;;
43160;SDS011;40968;52.342;5.528;2023-04-24T01:05:47;1.35;;;0.90;;
43160;SDS011;40968;52.342;5.528;2023-04-24T01:08:15;2.28;;;1.13;;
43160;SDS011;40968;52.342;5.528;2023-04-24T01:10:41;2.95;;;1.30;;
43160;SDS011;40968;52.342;5.528;2023-04-24T01:13:11;2.40;;;1.20;;
43160;SDS011;40968;52.342;5.528;2023-04-24T01:15:37;1.90;;;1.20;;
43160;SDS011;40968;52.342;5.528;2023-04-24T01:18:04;2.25;;;1.40;;
43160;SDS011;40968;52.342;5.528;2023-04-24T01:20:32;3.10;;;1.15;;
43160;SDS011;40968;52.342;5.528;2023-04-24T01:23:01;2.28;;;1.20;;
43160;SDS011;40968;52.342;5.528;2023-04-24T01:25:27;2.42;;;1.30;;
43160;SDS011;40968;52.342;5.528;2023-04-24T01:27:54;3.05;;;1.42;;
43160;SDS011;40968;52.342;5.528;2023-04-24T01:30:21;4.00;;;1.20;;
43160;SDS011;40968;52.342;5.528;2023-04-24T01:32:48;3.22;;;1.50;;
43160;SDS011;40968;52.342;5.528;2023-04-24T01:35:14;5.57;;;1.70;;
43160;SDS011;40968;52.342;5.528;2023-04-24T01:37:41;3.88;;;1.15;;
43160;SDS011;40968;52.342;5.528;2023-04-24T01:40:09;4.68;;;1.27;;
43160;SDS011;40968;52.342;5.528;2023-04-24T01:42:36;4.00;;;1.00;;
43160;SDS011;40968;52.342;5.528;2023-04-24T01:45:03;3.22;;;0.98;;
43160;SDS011;40968;52.342;5.528;2023-04-24T01:47:32;1.35;;;0.68;;
43160;SDS011;40968;52.342;5.528;2023-04-24T01:49:59;1.30;;;0.70;;
43160;SDS011;40968;52.342;5.528;2023-04-24T01:52:25;1.02;;;0.40;;
43160;SDS011;40968;52.342;5.528;2023-04-24T01:54:53;3.05;;;0.93;;
43160;SDS011;40968;52.342;5.528;2023-04-24T01:57:22;1.10;;;0.55;;
43160;SDS011;40968;52.342;5.528;2023-04-24T01:59:49;2.47;;;0.73;;
43160;SDS011;40968;52.342;5.528;2023-04-24T02:02:16;1.60;;;0.50;;
43160;SDS011;40968;52.342;5.528;2023-04-24T02:04:42;1.92;;;0.70;;
43160;SDS011;40968;52.342;5.528;2023-04-24T02:07:09;1.02;;;0.52;;
43160;SDS011;40968;52.342;5.528;2023-04-24T02:09:36;6.10;;;0.65;;
43160;SDS011;40968;52.342;5.528;2023-04-24T02:12:02;2.45;;;0.80;;
43160;SDS011;40968;52.342;5.528;2023-04-24T02:14:30;2.40;;;0.88;;
43160;SDS011;40968;52.342;5.528;2023-04-24T02:16:57;2.03;;;0.90;;
43160;SDS011;40968;52.342;5.528;2023-04-24T02:19:23;3.40;;;1.08;;
43160;SDS011;40968;52.342;5.528;2023-04-24T02:21:50;4.60;;;1.80;;
43160;SDS011;40968;52.342;5.528;2023-04-24T02:24:17;5.05;;;1.60;;
43160;SDS011;40968;52.342;5.528;2023-04-24T02:26:43;4.70;;;1.40;;
43160;SDS011;40968;52.342;5.528;2023-04-24T02:29:10;2.63;;;1.50;;
43160;SDS011;40968;52.342;5.528;2023-04-24T02:31:38;3.60;;;1.67;;
43160;SDS011;40968;52.342;5.528;2023-04-24T02:34:04;3.42;;;1.75;;
43160;SDS011;40968;52.342;5.528;2023-04-24T02:36:31;3.45;;;1.63;;
43160;SDS011;40968;52.342;5.528;2023-04-24T02:38:58;3.75;;;1.90;;
43160;SDS011;40968;52.342;5.528;2023-04-24T02:41:26;3.38;;;1.58;;
43160;SDS011;40968;52.342;5.528;2023-04-24T02:43:56;3.83;;;2.10;;
43160;SDS011;40968;52.342;5.528;2023-04-24T02:46:23;2.50;;;1.20;;
43160;SDS011;40968;52.342;5.528;2023-04-24T02:48:51;4.85;;;1.05;;
43160;SDS011;40968;52.342;5.528;2023-04-24T02:51:18;2.33;;;1.20;;
43160;SDS011;40968;52.342;5.528;2023-04-24T02:53:44;2.63;;;0.90;;
43160;SDS011;40968;52.342;5.528;2023-04-24T02:56:11;2.70;;;0.90;;
43160;SDS011;40968;52.342;5.528;2023-04-24T02:58:38;4.15;;;0.75;;
43160;SDS011;40968;52.342;5.528;2023-04-24T03:01:04;1.75;;;0.70;;
43160;SDS011;40968;52.342;5.528;2023-04-24T03:03:31;1.60;;;0.70;;
43160;SDS011;40968;52.342;5.528;2023-04-24T03:05:59;2.80;;;0.57;;
43160;SDS011;40968;52.342;5.528;2023-04-24T03:08:26;1.48;;;0.50;;
43160;SDS011;40968;52.342;5.528;2023-04-24T03:10:53;1.08;;;0.70;;
43160;SDS011;40968;52.342;5.528;2023-04-24T03:13:19;2.25;;;0.70;;
43160;SDS011;40968;52.342;5.528;2023-04-24T03:15:46;1.33;;;0.60;;
43160;SDS011;40968;52.342;5.528;2023-04-24T03:18:13;0.80;;;0.32;;
43160;SDS011;40968;52.342;5.528;2023-04-24T03:20:39;2.00;;;0.68;;
43160;SDS011;40968;52.342;5.528;2023-04-24T03:23:07;2.25;;;0.50;;
43160;SDS011;40968;52.342;5.528;2023-04-24T03:25:34;2.47;;;0.50;;
43160;SDS011;40968;52.342;5.528;2023-04-24T03:28:01;0.88;;;0.30;;
43160;SDS011;40968;52.342;5.528;2023-04-24T03:30:27;1.75;;;0.60;;
43160;SDS011;40968;52.342;5.528;2023-04-24T03:32:54;0.40;;;0.40;;
43160;SDS011;40968;52.342;5.528;2023-04-24T03:35:20;1.08;;;0.50;;
43160;SDS011;40968;52.342;5.528;2023-04-24T03:37:47;1.83;;;0.47;;
43160;SDS011;40968;52.342;5.528;2023-04-24T03:40:15;0.93;;;0.40;;
43160;SDS011;40968;52.342;5.528;2023-04-24T03:42:42;1.40;;;0.50;;
43160;SDS011;40968;52.342;5.528;2023-04-24T03:45:09;1.40;;;0.40;;
43160;SDS011;40968;52.342;5.528;2023-04-24T03:47:36;1.80;;;0.50;;
43160;SDS011;40968;52.342;5.528;2023-04-24T03:50:03;0.55;;;0.30;;
43160;SDS011;40968;52.342;5.528;2023-04-24T03:52:30;0.70;;;0.22;;
43160;SDS011;40968;52.342;5.528;2023-04-24T03:54:56;1.27;;;0.45;;
43160;SDS011;40968;52.342;5.528;2023-04-24T03:57:24;1.13;;;0.38;;
43160;SDS011;40968;52.342;5.528;2023-04-24T03:59:51;1.35;;;0.40;;
43160;SDS011;40968;52.342;5.528;2023-04-24T04:02:18;0.98;;;0.30;;
43160;SDS011;40968;52.342;5.528;2023-04-24T04:04:45;1.52;;;0.60;;
43160;SDS011;40968;52.342;5.528;2023-04-24T04:07:11;1.27;;;0.40;;
43160;SDS011;40968;52.342;5.528;2023-04-24T04:09:38;1.40;;;0.60;;
43160;SDS011;40968;52.342;5.528;2023-04-24T04:12:05;1.55;;;0.55;;
43160;SDS011;40968;52.342;5.528;2023-04-24T04:14:33;4.00;;;0.63;;
43160;SDS011;40968;52.342;5.528;2023-04-24T04:16:59;1.45;;;0.80;;
43160;SDS011;40968;52.342;5.528;2023-04-24T04:19:26;1.23;;;0.70;;
43160;SDS011;40968;52.342;5.528;2023-04-24T04:21:52;1.10;;;0.50;;
43160;SDS011;40968;52.342;5.528;2023-04-24T04:24:21;1.65;;;0.73;;
43160;SDS011;40968;52.342;5.528;2023-04-24T04:26:49;5.85;;;0.60;;
43160;SDS011;40968;52.342;5.528;2023-04-24T04:29:16;0.95;;;0.60;;
43160;SDS011;40968;52.342;5.528;2023-04-24T04:31:44;1.00;;;0.60;;
43160;SDS011;40968;52.342;5.528;2023-04-24T04:34:10;3.85;;;0.57;;
43160;SDS011;40968;52.342;5.528;2023-04-24T04:36:37;1.58;;;0.80;;
43160;SDS011;40968;52.342;5.528;2023-04-24T04:39:05;2.70;;;0.70;;
43160;SDS011;40968;52.342;5.528;2023-04-24T04:41:32;4.63;;;0.90;;
43160;SDS011;40968;52.342;5.528;2023-04-24T04:44:00;2.65;;;0.82;;
43160;SDS011;40968;52.342;5.528;2023-04-24T04:46:29;1.65;;;0.82;;
43160;SDS011;40968;52.342;5.528;2023-04-24T04:48:58;1.33;;;0.60;;
43160;SDS011;40968;52.342;5.528;2023-04-24T04:51:25;1.30;;;0.60;;
43160;SDS011;40968;52.342;5.528;2023-04-24T04:53:52;2.10;;;0.85;;
43160;SDS011;40968;52.342;5.528;2023-04-24T04:56:18;5.35;;;0.93;;
43160;SDS011;40968;52.342;5.528;2023-04-24T04:58:45;2.85;;;1.00;;
43160;SDS011;40968;52.342;5.528;2023-04-24T05:01:12;2.83;;;0.82;;
43160;SDS011;40968;52.342;5.528;2023-04-24T05:03:38;2.92;;;0.80;;
43160;SDS011;40968;52.342;5.528;2023-04-24T05:06:07;3.28;;;1.10;;
43160;SDS011;40968;52.342;5.528;2023-04-24T05:08:33;3.03;;;1.10;;
43160;SDS011;40968;52.342;5.528;2023-04-24T05:11:00;2.20;;;1.20;;
43160;SDS011;40968;52.342;5.528;2023-04-24T05:13:27;2.17;;;0.90;;
43160;SDS011;40968;52.342;5.528;2023-04-24T05:15:53;3.33;;;1.30;;
43160;SDS011;40968;52.342;5.528;2023-04-24T05:18:20;1.80;;;1.00;;
43160;SDS011;40968;52.342;5.528;2023-04-24T05:20:46;2.88;;;1.17;;
43160;SDS011;40968;52.342;5.528;2023-04-24T05:23:14;5.32;;;1.55;;
43160;SDS011;40968;52.342;5.528;2023-04-24T05:25:41;2.30;;;1.10;;
43160;SDS011;40968;52.342;5.528;2023-04-24T05:28:08;3.03;;;1.15;;
43160;SDS011;40968;52.342;5.528;2023-04-24T05:30:34;7.18;;;1.30;;
43160;SDS011;40968;52.342;5.528;2023-04-24T05:33:01;1.67;;;0.95;;
43160;SDS011;40968;52.342;5.528;2023-04-24T05:35:28;5.20;;;1.20;;
43160;SDS011;40968;52.342;5.528;2023-04-24T05:37:55;2.55;;;0.90;;
43160;SDS011;40968;52.342;5.528;2023-04-24T05:40:23;5.55;;;1.50;;
43160;SDS011;40968;52.342;5.528;2023-04-24T05:42:50;5.57;;;1.02;;
43160;SDS011;40968;52.342;5.528;2023-04-24T05:45:16;2.65;;;1.08;;
43160;SDS011;40968;52.342;5.528;2023-04-24T05:47:43;2.97;;;1.10;;
43160;SDS011;40968;52.342;5.528;2023-04-24T05:50:10;4.50;;;1.40;;
43160;SDS011;40968;52.342;5.528;2023-04-24T05:52:37;4.18;;;1.20;;
43160;SDS011;40968;52.342;5.528;2023-04-24T05:55:04;4.45;;;1.52;;
43160;SDS011;40968;52.342;5.528;2023-04-24T05:57:32;3.92;;;1.27;;
43160;SDS011;40968;52.342;5.528;2023-04-24T05:59:59;4.82;;;1.30;;
43160;SDS011;40968;52.342;5.528;2023-04-24T06:02:26;5.00;;;1.88;;
43160;SDS011;40968;52.342;5.528;2023-04-24T06:04:53;8.77;;;1.63;;
43160;SDS011;40968;52.342;5.528;2023-04-24T06:07:20;7.38;;;1.77;;
43160;SDS011;40968;52.342;5.528;2023-04-24T06:09:47;4.88;;;1.40;;
43160;SDS011;40968;52.342;5.528;2023-04-24T06:12:13;5.88;;;1.30;;
43160;SDS011;40968;52.342;5.528;2023-04-24T06:14:41;6.13;;;1.60;;
43160;SDS011;40968;52.342;5.528;2023-04-24T06:17:08;11.23;;;1.52;;
43160;SDS011;40968;52.342;5.528;2023-04-24T06:19:35;5.82;;;1.60;;
43160;SDS011;40968;52.342;5.528;2023-04-24T06:22:01;4.25;;;1.40;;
43160;SDS011;40968;52.342;5.528;2023-04-24T06:24:28;5.05;;;1.13;;
43160;SDS011;40968;52.342;5.528;2023-04-24T06:26:55;4.82;;;1.30;;
43160;SDS011;40968;52.342;5.528;2023-04-24T06:29:22;8.05;;;1.38;;
43160;SDS011;40968;52.342;5.528;2023-04-24T06:31:50;9.23;;;1.42;;
43160;SDS011;40968;52.342;5.528;2023-04-24T06:34:17;4.88;;;1.38;;
43160;SDS011;40968;52.342;5.528;2023-04-24T06:36:43;5.80;;;1.25;;
43160;SDS011;40968;52.342;5.528;2023-04-24T06:39:10;12.13;;;5.28;;
43160;SDS011;40968;52.342;5.528;2023-04-24T06:41:37;20.52;;;8.13;;
43160;SDS011;40968;52.342;5.528;2023-04-24T06:44:05;35.38;;;11.55;;
43160;SDS011;40968;52.342;5.528;2023-04-24T06:46:31;49.55;;;15.13;;
43160;SDS011;40968;52.342;5.528;2023-04-24T06:48:59;55.38;;;16.40;;
43160;SDS011;40968;52.342;5.528;2023-04-24T06:51:26;37.92;;;13.90;;
43160;SDS011;40968;52.342;5.528;2023-04-24T06:53:53;38.22;;;12.70;;
43160;SDS011;40968;52.342;5.528;2023-04-24T06:56:21;37.65;;;12.82;;
43160;SDS011;40968;52.342;5.528;2023-04-24T06:58:47;35.25;;;11.57;;
43160;SDS011;40968;52.342;5.528;2023-04-24T07:01:14;25.08;;;9.05;;
43160;SDS011;40968;52.342;5.528;2023-04-24T07:03:41;23.83;;;8.45;;
43160;SDS011;40968;52.342;5.528;2023-04-24T07:06:09;27.83;;;9.50;;
43160;SDS011;40968;52.342;5.528;2023-04-24T07:08:36;25.63;;;9.70;;
43160;SDS011;40968;52.342;5.528;2023-04-24T07:11:02;30.65;;;11.02;;
43160;SDS011;40968;52.342;5.528;2023-04-24T07:13:29;39.53;;;12.20;;
43160;SDS011;40968;52.342;5.528;2023-04-24T07:15:56;39.10;;;12.52;;
43160;SDS011;40968;52.342;5.528;2023-04-24T07:18:23;40.92;;;12.65;;
43160;SDS011;40968;52.342;5.528;2023-04-24T07:20:49;36.95;;;11.38;;
43160;SDS011;40968;52.342;5.528;2023-04-24T07:23:18;37.95;;;12.77;;
43160;SDS011;40968;52.342;5.528;2023-04-24T07:25:45;43.75;;;10.77;;
43160;SDS011;40968;52.342;5.528;2023-04-24T07:28:12;30.15;;;9.80;;
43160;SDS011;40968;52.342;5.528;2023-04-24T07:30:39;32.28;;;9.48;;
43160;SDS011;40968;52.342;5.528;2023-04-24T07:33:06;25.80;;;9.68;;
43160;SDS011;40968;52.342;5.528;2023-04-24T07:35:32;26.88;;;9.65;;
43160;SDS011;40968;52.342;5.528;2023-04-24T07:37:59;29.05;;;9.55;;
43160;SDS011;40968;52.342;5.528;2023-04-24T07:40:27;28.52;;;9.75;;
43160;SDS011;40968;52.342;5.528;2023-04-24T07:42:54;36.65;;;9.15;;
43160;SDS011;40968;52.342;5.528;2023-04-24T07:45:20;26.20;;;8.80;;
43160;SDS011;40968;52.342;5.528;2023-04-24T07:47:48;33.33;;;9.13;;
43160;SDS011;40968;52.342;5.528;2023-04-24T07:50:14;33.67;;;9.80;;
43160;SDS011;40968;52.342;5.528;2023-04-24T07:52:41;27.30;;;9.15;;
43160;SDS011;40968;52.342;5.528;2023-04-24T07:55:07;25.17;;;8.40;;
43160;SDS011;40968;52.342;5.528;2023-04-24T07:57:35;22.42;;;7.97;;
43160;SDS011;40968;52.342;5.528;2023-04-24T08:00:03;30.70;;;9.15;;
43160;SDS011;40968;52.342;5.528;2023-04-24T08:02:30;30.10;;;7.93;;
43160;SDS011;40968;52.342;5.528;2023-04-24T08:04:57;23.95;;;8.35;;
43160;SDS011;40968;52.342;5.528;2023-04-24T08:07:24;32.05;;;8.65;;
43160;SDS011;40968;52.342;5.528;2023-04-24T08:09:50;25.58;;;7.57;;
43160;SDS011;40968;52.342;5.528;2023-04-24T08:12:17;28.67;;;8.45;;
43160;SDS011;40968;52.342;5.528;2023-04-24T08:14:45;28.85;;;8.77;;
43160;SDS011;40968;52.342;5.528;2023-04-24T08:17:11;40.20;;;10.30;;
43160;SDS011;40968;52.342;5.528;2023-04-24T08:19:39;25.65;;;8.85;;
43160;SDS011;40968;52.342;5.528;2023-04-24T08:22:08;36.10;;;10.35;;
43160;SDS011;40968;52.342;5.528;2023-04-24T08:24:34;25.30;;;8.23;;
43160;SDS011;40968;52.342;5.528;2023-04-24T08:27:01;31.65;;;8.60;;
43160;SDS011;40968;52.342;5.528;2023-04-24T08:29:28;28.67;;;9.18;;
43160;SDS011;40968;52.342;5.528;2023-04-24T08:31:56;30.33;;;8.85;;
43160;SDS011;40968;52.342;5.528;2023-04-24T08:34:23;23.63;;;6.85;;
43160;SDS011;40968;52.342;5.528;2023-04-24T08:36:49;28.02;;;7.57;;
43160;SDS011;40968;52.342;5.528;2023-04-24T08:39:16;18.30;;;6.65;;
43160;SDS011;40968;52.342;5.528;2023-04-24T08:41:44;29.75;;;6.93;;
43160;SDS011;40968;52.342;5.528;2023-04-24T08:44:11;28.50;;;7.03;;
43160;SDS011;40968;52.342;5.528;2023-04-24T08:46:40;23.77;;;6.15;;
43160;SDS011;40968;52.342;5.528;2023-04-24T08:49:10;19.92;;;6.35;;
43160;SDS011;40968;52.342;5.528;2023-04-24T08:51:37;27.98;;;5.80;;
43160;SDS011;40968;52.342;5.528;2023-04-24T08:54:04;29.50;;;5.65;;
43160;SDS011;40968;52.342;5.528;2023-04-24T08:56:32;19.50;;;5.40;;
43160;SDS011;40968;52.342;5.528;2023-04-24T08:59:02;28.08;;;6.22;;
43160;SDS011;40968;52.342;5.528;2023-04-24T09:01:30;22.85;;;5.72;;
43160;SDS011;40968;52.342;5.528;2023-04-24T09:03:58;26.75;;;6.13;;
43160;SDS011;40968;52.342;5.528;2023-04-24T09:06:29;35.47;;;6.57;;
43160;SDS011;40968;52.342;5.528;2023-04-24T09:08:57;32.03;;;6.20;;
43160;SDS011;40968;52.342;5.528;2023-04-24T09:11:27;21.63;;;4.53;;
43160;SDS011;40968;52.342;5.528;2023-04-24T09:13:53;25.63;;;4.75;;
43160;SDS011;40968;52.342;5.528;2023-04-24T09:16:21;28.02;;;5.13;;
43160;SDS011;40968;52.342;5.528;2023-04-24T09:18:49;21.55;;;5.70;;
43160;SDS011;40968;52.342;5.528;2023-04-24T09:21:16;18.55;;;4.10;;
43160;SDS011;40968;52.342;5.528;2023-04-24T09:23:44;25.23;;;4.40;;
43160;SDS011;40968;52.342;5.528;2023-04-24T09:26:11;22.23;;;4.95;;
43160;SDS011;40968;52.342;5.528;2023-04-24T09:28:39;17.83;;;3.88;;
43160;SDS011;40968;52.342;5.528;2023-04-24T09:31:07;26.52;;;3.90;;
43160;SDS011;40968;52.342;5.528;2023-04-24T09:33:36;21.08;;;4.10;;
43160;SDS011;40968;52.342;5.528;2023-04-24T09:36:03;18.13;;;3.83;;
43160;SDS011;40968;52.342;5.528;2023-04-24T09:38:32;21.58;;;4.18;;
43160;SDS011;40968;52.342;5.528;2023-04-24T09:41:02;20.75;;;3.95;;
43160;SDS011;40968;52.342;5.528;2023-04-24T09:43:31;15.13;;;3.20;;
43160;SDS011;40968;52.342;5.528;2023-04-24T09:45:58;17.17;;;3.30;;
43160;SDS011;40968;52.342;5.528;2023-04-24T09:48:32;17.33;;;3.85;;
43160;SDS011;40968;52.342;5.528;2023-04-24T09:51:00;23.75;;;3.60;;
43160;SDS011;40968;52.342;5.528;2023-04-24T09:53:28;10.82;;;2.85;;
43160;SDS011;40968;52.342;5.528;2023-04-24T09:55:55;9.63;;;2.75;;
43160;SDS011;40968;52.342;5.528;2023-04-24T09:58:28;10.35;;;3.00;;
43160;SDS011;40968;52.342;5.528;2023-04-24T10:00:56;18.27;;;4.40;;
43160;SDS011;40968;52.342;5.528;2023-04-24T10:03:23;14.82;;;3.00;;
43160;SDS011;40968;52.342;5.528;2023-04-24T10:05:52;8.38;;;2.83;;
43160;SDS011;40968;52.342;5.528;2023-04-24T10:08:20;14.70;;;3.78;;
43160;SDS011;40968;52.342;5.528;2023-04-24T10:10:47;10.45;;;2.72;;
43160;SDS011;40968;52.342;5.528;2023-04-24T10:13:14;17.23;;;3.08;;
43160;SDS011;40968;52.342;5.528;2023-04-24T10:15:42;13.02;;;3.03;;
43160;SDS011;40968;52.342;5.528;2023-04-24T10:18:10;15.52;;;2.92;;
43160;SDS011;40968;52.342;5.528;2023-04-24T10:20:37;8.35;;;2.70;;
43160;SDS011;40968;52.342;5.528;2023-04-24T10:23:05;13.35;;;2.72;;
43160;SDS011;40968;52.342;5.528;2023-04-24T10:25:32;10.40;;;3.00;;
43160;SDS011;40968;52.342;5.528;2023-04-24T10:28:00;13.48;;;2.83;;
43160;SDS011;40968;52.342;5.528;2023-04-24T10:30:28;7.25;;;2.60;;
43160;SDS011;40968;52.342;5.528;2023-04-24T10:33:01;9.00;;;2.50;;
43160;SDS011;40968;52.342;5.528;2023-04-24T10:35:30;15.25;;;3.38;;
43160;SDS011;40968;52.342;5.528;2023-04-24T10:37:58;11.13;;;2.80;;
43160;SDS011;40968;52.342;5.528;2023-04-24T10:42:56;11.10;;;3.28;;
43160;SDS011;40968;52.342;5.528;2023-04-24T10:45:23;16.80;;;3.35;;
43160;SDS011;40968;52.342;5.528;2023-04-24T10:47:54;10.65;;;2.55;;
43160;SDS011;40968;52.342;5.528;2023-04-24T10:50:24;9.88;;;2.20;;
43160;SDS011;40968;52.342;5.528;2023-04-24T10:52:52;11.00;;;2.47;;
43160;SDS011;40968;52.342;5.528;2023-04-24T10:55:40;14.32;;;2.53;;
43160;SDS011;40968;52.342;5.528;2023-04-24T10:58:08;9.00;;;1.40;;
43160;SDS011;40968;52.342;5.528;2023-04-24T11:00:36;6.13;;;1.63;;
43160;SDS011;40968;52.342;5.528;2023-04-24T11:03:04;4.68;;;1.05;;
43160;SDS011;40968;52.342;5.528;2023-04-24T11:05:52;8.95;;;1.30;;
43160;SDS011;40968;52.342;5.528;2023-04-24T11:08:22;3.70;;;1.10;;
43160;SDS011;40968;52.342;5.528;2023-04-24T11:10:54;12.02;;;1.25;;
43160;SDS011;40968;52.342;5.528;2023-04-24T11:13:26;5.15;;;1.42;;
43160;SDS011;40968;52.342;5.528;2023-04-24T11:16:15;7.85;;;1.38;;
43160;SDS011;40968;52.342;5.528;2023-04-24T11:18:48;4.28;;;1.52;;
43160;SDS011;40968;52.342;5.528;2023-04-24T11:21:20;6.63;;;1.58;;
43160;SDS011;40968;52.342;5.528;2023-04-24T11:23:48;4.00;;;1.25;;
43160;SDS011;40968;52.342;5.528;2023-04-24T11:26:17;7.68;;;1.50;;
43160;SDS011;40968;52.342;5.528;2023-04-24T11:28:46;5.28;;;1.30;;
43160;SDS011;40968;52.342;5.528;2023-04-24T11:34:05;4.60;;;1.20;;
43160;SDS011;40968;52.342;5.528;2023-04-24T11:36:34;2.53;;;1.13;;
43160;SDS011;40968;52.342;5.528;2023-04-24T11:39:01;6.53;;;1.65;;
43160;SDS011;40968;52.342;5.528;2023-04-24T11:41:28;5.55;;;1.50;;
43160;SDS011;40968;52.342;5.528;2023-04-24T11:43:55;10.93;;;1.65;;
43160;SDS011;40968;52.342;5.528;2023-04-24T11:46:22;7.70;;;1.85;;
43160;SDS011;40968;52.342;5.528;2023-04-24T11:48:52;4.05;;;1.30;;
43160;SDS011;40968;52.342;5.528;2023-04-24T11:51:19;5.03;;;1.27;;
43160;SDS011;40968;52.342;5.528;2023-04-24T11:53:47;3.90;;;1.05;;
43160;SDS011;40968;52.342;5.528;2023-04-24T11:56:16;10.00;;;1.40;;
43160;SDS011;40968;52.342;5.528;2023-04-24T11:58:44;7.28;;;1.20;;
43160;SDS011;40968;52.342;5.528;2023-04-24T12:01:10;4.95;;;1.20;;
43160;SDS011;40968;52.342;5.528;2023-04-24T12:03:37;6.93;;;1.00;;
43160;SDS011;40968;52.342;5.528;2023-04-24T12:06:04;5.60;;;1.17;;
43160;SDS011;40968;52.342;5.528;2023-04-24T12:08:32;7.45;;;1.95;;
43160;SDS011;40968;52.342;5.528;2023-04-24T12:11:01;6.03;;;1.60;;
43160;SDS011;40968;52.342;5.528;2023-04-24T12:13:28;7.07;;;1.30;;
43160;SDS011;40968;52.342;5.528;2023-04-24T12:15:56;3.30;;;1.40;;
43160;SDS011;40968;52.342;5.528;2023-04-24T12:18:23;10.00;;;1.52;;
43160;SDS011;40968;52.342;5.528;2023-04-24T12:20:50;5.10;;;1.40;;
43160;SDS011;40968;52.342;5.528;2023-04-24T12:23:32;7.50;;;1.73;;
43160;SDS011;40968;52.342;5.528;2023-04-24T12:26:03;5.65;;;2.10;;
43160;SDS011;40968;52.342;5.528;2023-04-24T12:28:34;7.05;;;1.60;;
43160;SDS011;40968;52.342;5.528;2023-04-24T12:31:02;8.45;;;1.60;;
43160;SDS011;40968;52.342;5.528;2023-04-24T12:33:32;4.22;;;1.30;;
43160;SDS011;40968;52.342;5.528;2023-04-24T12:35:59;6.03;;;1.60;;
43160;SDS011;40968;52.342;5.528;2023-04-24T12:38:27;11.43;;;1.80;;
43160;SDS011;40968;52.342;5.528;2023-04-24T12:41:02;16.25;;;1.75;;
43160;SDS011;40968;52.342;5.528;2023-04-24T12:43:31;5.53;;;1.45;;
43160;SDS011;40968;52.342;5.528;2023-04-24T12:45:57;3.80;;;1.63;;
43160;SDS011;40968;52.342;5.528;2023-04-24T12:48:25;7.93;;;1.50;;
43160;SDS011;40968;52.342;5.528;2023-04-24T12:50:51;8.13;;;1.65;;
43160;SDS011;40968;52.342;5.528;2023-04-24T12:53:18;5.05;;;1.45;;
43160;SDS011;40968;52.342;5.528;2023-04-24T12:55:45;5.20;;;1.55;;
43160;SDS011;40968;52.342;5.528;2023-04-24T12:58:18;7.97;;;1.48;;
43160;SDS011;40968;52.342;5.528;2023-04-24T13:00:46;18.10;;;2.03;;
43160;SDS011;40968;52.342;5.528;2023-04-24T13:03:13;27.65;;;3.45;;
43160;SDS011;40968;52.342;5.528;2023-04-24T13:05:40;9.52;;;2.08;;
43160;SDS011;40968;52.342;5.528;2023-04-24T13:08:08;11.27;;;2.00;;
43160;SDS011;40968;52.342;5.528;2023-04-24T13:10:34;5.90;;;2.03;;
43160;SDS011;40968;52.342;5.528;2023-04-24T13:13:01;10.07;;;2.50;;
43160;SDS011;40968;52.342;5.528;2023-04-24T13:15:30;13.45;;;2.53;;
43160;SDS011;40968;52.342;5.528;2023-04-24T13:17:57;13.02;;;2.55;;
43160;SDS011;40968;52.342;5.528;2023-04-24T13:20:23;21.73;;;3.10;;
43160;SDS011;40968;52.342;5.528;2023-04-24T13:22:51;12.32;;;3.10;;
43160;SDS011;40968;52.342;5.528;2023-04-24T13:25:17;38.33;;;4.00;;
43160;SDS011;40968;52.342;5.528;2023-04-24T13:27:45;14.52;;;3.05;;
43160;SDS011;40968;52.342;5.528;2023-04-24T13:30:12;18.35;;;3.60;;
43160;SDS011;40968;52.342;5.528;2023-04-24T13:32:40;15.07;;;4.05;;
43160;SDS011;40968;52.342;5.528;2023-04-24T13:35:07;14.50;;;3.28;;
43160;SDS011;40968;52.342;5.528;2023-04-24T13:37:34;14.65;;;3.83;;
43160;SDS011;40968;52.342;5.528;2023-04-24T13:40:01;11.77;;;3.40;;
43160;SDS011;40968;52.342;5.528;2023-04-24T13:42:30;12.07;;;3.40;;
43160;SDS011;40968;52.342;5.528;2023-04-24T13:44:57;12.50;;;3.35;;
43160;SDS011;40968;52.342;5.528;2023-04-24T13:47:24;13.38;;;3.15;;
43160;SDS011;40968;52.342;5.528;2023-04-24T13:49:52;16.98;;;4.13;;
43160;SDS011;40968;52.342;5.528;2023-04-24T13:52:19;14.00;;;3.53;;
43160;SDS011;40968;52.342;5.528;2023-04-24T13:54:45;14.73;;;3.25;;
43160;SDS011;40968;52.342;5.528;2023-04-24T13:57:13;23.27;;;4.30;;
43160;SDS011;40968;52.342;5.528;2023-04-24T13:59:40;15.77;;;4.03;;
43160;SDS011;40968;52.342;5.528;2023-04-24T14:02:07;20.52;;;4.07;;
43160;SDS011;40968;52.342;5.528;2023-04-24T14:04:34;13.80;;;3.22;;
43160;SDS011;40968;52.342;5.528;2023-04-24T14:07:02;13.95;;;3.58;;
43160;SDS011;40968;52.342;5.528;2023-04-24T14:09:28;24.30;;;5.00;;
43160;SDS011;40968;52.342;5.528;2023-04-24T14:11:55;19.05;;;3.70;;
43160;SDS011;40968;52.342;5.528;2023-04-24T14:14:22;14.57;;;3.70;;
43160;SDS011;40968;52.342;5.528;2023-04-24T14:16:49;15.70;;;3.72;;
43160;SDS011;40968;52.342;5.528;2023-04-24T14:19:15;10.13;;;2.72;;
43160;SDS011;40968;52.342;5.528;2023-04-24T14:21:42;12.07;;;2.92;;
43160;SDS011;40968;52.342;5.528;2023-04-24T14:24:10;10.57;;;2.38;;
43160;SDS011;40968;52.342;5.528;2023-04-24T14:26:37;10.75;;;2.30;;
43160;SDS011;40968;52.342;5.528;2023-04-24T14:29:03;8.77;;;2.30;;
43160;SDS011;40968;52.342;5.528;2023-04-24T14:31:30;15.05;;;3.38;;
43160;SDS011;40968;52.342;5.528;2023-04-24T14:33:56;13.27;;;2.85;;
43160;SDS011;40968;52.342;5.528;2023-04-24T14:36:23;10.68;;;2.95;;
43160;SDS011;40968;52.342;5.528;2023-04-24T14:38:50;16.35;;;3.67;;
43160;SDS011;40968;52.342;5.528;2023-04-24T14:41:18;16.55;;;2.97;;
43160;SDS011;40968;52.342;5.528;2023-04-24T14:43:45;14.23;;;3.10;;
43160;SDS011;40968;52.342;5.528;2023-04-24T14:46:11;12.98;;;3.63;;
43160;SDS011;40968;52.342;5.528;2023-04-24T14:48:38;11.27;;;2.90;;